Jacksonville International Airport Jacksonville US
ICAO: KJAX
IATA: JAX
Category: Large
Scheduled Services: Yes

Elevation: 30 ft
TransAlt. 18000 ft.

Airport Communications:
APP/DEP:118
ATIS:125.85
CLNC DEL:119.5
GND:121.9
ANG MAINT:25.125
ANG SOF:27.39
ANG COMD POST:25.125
TWR:118.3
UNICOM:122.95

KJAX Zoom In..

Runways:

(A) RW 08 length 10000 ft width 150 ft
ILS 110.70 / hdg 77

(B) RW 14 length 7701 ft width 150 ft
ILS 110.50 / hdg 137

(C) RW 26 length 10000 ft width 150 ft
ILS 110.30 / hdg 257

(D) RW 32 length 7701 ft width 150 ft
---- / hdg 317

Location; KJAX
Day. 29 / Time. 01.56 Zulu
* Altimeter: 30.08
* Temperature: 24° c. 75.2°f.
* Wind from: 230° Speed 06 kn.
Dewpoint: 22° c.
Visibility: 10 Statute Miles.
Clouds: Few 600 ft.
Clouds: Scattered 6000 ft.
Clouds: Overcast 25000 ft.

KJAX 290156Z 23006KT 10SM FEW006 SCT060 OVC250 24/22 A3008 RMK AO2 SLP185 T02390217 $


Wind From 230°
Speed 06 kn.

 
 
jpsmedia worldairports.se 2020   terms of use